Time;durP1;ratioP1;P1;durP2;ratioP2;P2;SDS_P1;SDS_P2;PMS_P1;PMS_P2;Temp;Humidity;BMP_temperature;BMP_pressure;BME280_temperature;BME280_humidity;BME280_pressure;Samples;Min_cycle;Max_cycle;Signal;HPM_P1;HPM_P2
2023/05/08 00:01:03;;;;;;;;;;;17.20;63.70;;;;;;5044070;28;19920;-68
2023/05/08 00:03:28;;;;;;;;;;;17.20;63.70;;;;;;5041628;28;19927;-68
2023/05/08 00:05:54;;;;;;;;;;;17.20;63.70;;;;;;5041707;28;19924;-68
2023/05/08 00:08:20;;;;;;;;;;;17.20;63.70;;;;;;5051933;28;20400;-68
2023/05/08 00:10:45;;;;;;;;;;;17.20;63.70;;;;;;5042265;28;19932;-68
2023/05/08 00:13:11;;;;;;;;;;;17.20;63.70;;;;;;5042405;28;20019;-68
2023/05/08 00:15:36;;;;;;;;;;;17.20;63.70;;;;;;5042080;28;20300;-68
2023/05/08 00:18:02;;;;;;;;;;;17.20;63.60;;;;;;5043955;28;20217;-68
2023/05/08 00:20:27;;;;;;;;;;;17.10;63.60;;;;;;5042070;28;20264;-67
2023/05/08 00:22:53;;;;;;;;;;;17.10;63.60;;;;;;5046969;28;20328;-68
2023/05/08 00:25:18;;;;;;;;;;;17.10;63.50;;;;;;5047381;28;19925;-68
2023/05/08 00:27:44;;;;;;;;;;;17.10;63.50;;;;;;5046317;28;19920;-67
2023/05/08 00:30:09;;;;;;;;;;;17.10;63.50;;;;;;5044401;28;19925;-67
2023/05/08 00:32:35;;;;;;;;;;;17.10;63.50;;;;;;5045467;28;19979;-68
2023/05/08 00:35:00;;;;;;;;;;;17.10;63.50;;;;;;5046120;28;19952;-68
2023/05/08 00:37:26;;;;;;;;;;;17.10;63.50;;;;;;5045835;28;19925;-68
2023/05/08 00:39:51;;;;;;;;;;;17.10;63.50;;;;;;5046155;28;19931;-68
2023/05/08 00:42:17;;;;;;;;;;;17.10;63.50;;;;;;5045095;28;20319;-68
2023/05/08 00:44:42;;;;;;;;;;;17.10;63.50;;;;;;5045783;28;20008;-67
2023/05/08 00:47:08;;;;;;;;;;;17.10;63.40;;;;;;5045174;28;19975;-67
2023/05/08 00:49:34;;;;;;;;;;;17.10;63.40;;;;;;5047832;28;20003;-68
2023/05/08 00:52:01;;;;;;;;;;;17.10;63.40;;;;;;5044811;28;20287;-67
2023/05/08 00:54:27;;;;;;;;;;;17.10;63.40;;;;;;5060275;28;19925;-68
2023/05/08 00:56:53;;;;;;;;;;;17.10;63.40;;;;;;5044772;28;19921;-67
2023/05/08 00:59:19;;;;;;;;;;;17.10;63.40;;;;;;5045879;28;19928;-68
2023/05/08 01:01:46;;;;;;;;;;;17.10;63.40;;;;;;5045989;28;20556;-68
2023/05/08 01:04:13;;;;;;;;;;;17.10;63.30;;;;;;5045485;28;19924;-67
2023/05/08 01:06:38;;;;;;;;;;;17.10;63.30;;;;;;5045242;28;20380;-68
2023/05/08 01:09:04;;;;;;;;;;;17.10;63.30;;;;;;5045730;28;19928;-68
2023/05/08 01:11:33;;;;;;;;;;;17.10;63.30;;;;;;5044569;28;20430;-68
2023/05/08 01:14:18;;;;;;;;;;;17.10;63.30;;;;;;5043737;28;19964;-68
2023/05/08 01:16:48;;;;;;;;;;;17.10;63.30;;;;;;5060461;28;19956;-68
2023/05/08 01:21:59;;;;;;;;;;;17.10;63.20;;;;;;5078899;28;19938;-68
2023/05/08 01:24:37;;;;;;;;;;;17.00;63.20;;;;;;5071527;28;19924;-68
2023/05/08 01:27:22;;;;;;;;;;;17.00;63.20;;;;;;5068718;28;20249;-68
2023/05/08 01:32:30;;;;;;;;;;;17.00;63.10;;;;;;5075449;28;19964;-68
2023/05/08 01:35:11;;;;;;;;;;;17.00;63.10;;;;;;5072041;28;19944;-67
2023/05/08 01:37:39;;;;;;;;;;;17.00;63.10;;;;;;5076996;28;19920;-67
2023/05/08 01:40:11;;;;;;;;;;;17.00;63.10;;;;;;5073729;28;19970;-67
2023/05/08 01:42:56;;;;;;;;;;;17.00;63.10;;;;;;5089777;28;19955;-67
2023/05/08 01:45:27;;;;;;;;;;;17.00;63.10;;;;;;5073576;28;19929;-67
2023/05/08 01:48:03;;;;;;;;;;;17.00;63.00;;;;;;5088152;28;19921;-68
2023/05/08 01:50:31;;;;;;;;;;;17.00;63.00;;;;;;5070398;28;19979;-68
2023/05/08 01:52:58;;;;;;;;;;;17.00;63.00;;;;;;5075579;28;20295;-67
2023/05/08 01:55:25;;;;;;;;;;;17.00;63.00;;;;;;5073306;28;19927;-67
2023/05/08 01:57:53;;;;;;;;;;;17.00;62.90;;;;;;5073440;28;20355;-67
2023/05/08 02:00:20;;;;;;;;;;;17.00;62.90;;;;;;5073599;28;19920;-68
2023/05/08 02:02:46;;;;;;;;;;;16.90;62.80;;;;;;5071719;28;20423;-67
2023/05/08 02:05:12;;;;;;;;;;;17.00;62.90;;;;;;5072331;28;19986;-68
2023/05/08 02:07:39;;;;;;;;;;;17.00;62.90;;;;;;5073728;28;19927;-68
2023/05/08 02:10:05;;;;;;;;;;;16.90;62.80;;;;;;5072019;28;19924;-68
2023/05/08 02:12:31;;;;;;;;;;;17.00;62.90;;;;;;5072109;28;20459;-68
2023/05/08 02:14:57;;;;;;;;;;;16.90;62.80;;;;;;5073494;28;19928;-68
2023/05/08 02:17:23;;;;;;;;;;;17.00;62.80;;;;;;5073211;28;20375;-68
2023/05/08 02:19:50;;;;;;;;;;;17.00;62.80;;;;;;5071171;28;19928;-68
2023/05/08 02:22:16;;;;;;;;;;;17.00;62.70;;;;;;5074132;28;19925;-68
2023/05/08 02:24:44;;;;;;;;;;;16.90;62.60;;;;;;5072687;28;19921;-68
2023/05/08 02:27:10;;;;;;;;;;;16.90;62.70;;;;;;5072248;28;20356;-68
2023/05/08 02:29:36;;;;;;;;;;;16.90;62.60;;;;;;5089850;28;20292;-67
2023/05/08 02:32:02;;;;;;;;;;;16.90;62.60;;;;;;5071394;28;20003;-67
2023/05/08 02:34:29;;;;;;;;;;;16.90;62.60;;;;;;5078278;28;19929;-68
2023/05/08 02:36:54;;;;;;;;;;;16.90;62.50;;;;;;5072321;28;19996;-68
2023/05/08 02:39:21;;;;;;;;;;;16.90;62.50;;;;;;5072162;28;20008;-68
2023/05/08 02:41:47;;;;;;;;;;;16.90;62.50;;;;;;5070569;28;19921;-68
2023/05/08 02:44:12;;;;;;;;;;;16.90;62.50;;;;;;5058864;28;19927;-67
2023/05/08 02:49:26;;;;;;;;;;;16.90;62.50;;;;;;5097421;27;19916;-67
2023/05/08 02:51:54;;;;;;;;;;;16.90;62.50;;;;;;5077292;28;19959;-67
2023/05/08 02:54:30;;;;;;;;;;;16.90;62.50;;;;;;5074594;28;19924;-68
2023/05/08 02:56:58;;;;;;;;;;;16.90;62.40;;;;;;5073888;28;19921;-67
2023/05/08 02:59:42;;;;;;;;;;;16.90;62.40;;;;;;5074519;28;19925;-68
2023/05/08 03:02:11;;;;;;;;;;;16.80;62.40;;;;;;5108394;28;19921;-68
2023/05/08 03:04:40;;;;;;;;;;;16.90;62.40;;;;;;5071264;28;19992;-67
2023/05/08 03:07:06;;;;;;;;;;;16.80;62.40;;;;;;5074362;28;20372;-68
2023/05/08 03:09:37;;;;;;;;;;;16.90;62.40;;;;;;5076360;28;19932;-68
2023/05/08 03:12:05;;;;;;;;;;;16.80;62.40;;;;;;5074966;28;20007;-68
2023/05/08 03:14:34;;;;;;;;;;;16.80;62.30;;;;;;5074223;28;20406;-68
2023/05/08 03:17:01;;;;;;;;;;;16.90;62.30;;;;;;5075792;28;19959;-67
2023/05/08 03:19:28;;;;;;;;;;;16.90;62.30;;;;;;5074749;28;19928;-68
2023/05/08 03:21:54;;;;;;;;;;;16.80;62.20;;;;;;5075717;28;19921;-68
2023/05/08 03:24:21;;;;;;;;;;;16.80;62.30;;;;;;5074119;28;19925;-68
2023/05/08 03:26:47;;;;;;;;;;;16.80;62.20;;;;;;5073116;28;19924;-68
2023/05/08 03:29:13;;;;;;;;;;;16.80;62.20;;;;;;5073480;28;19929;-68
2023/05/08 03:31:40;;;;;;;;;;;16.80;62.20;;;;;;5075825;28;19920;-68
2023/05/08 03:34:05;;;;;;;;;;;16.80;62.20;;;;;;5073541;28;20356;-68
2023/05/08 03:36:31;;;;;;;;;;;16.80;62.20;;;;;;5073988;28;19924;-67
2023/05/08 03:38:58;;;;;;;;;;;16.80;62.10;;;;;;5074599;28;19973;-68
2023/05/08 03:41:24;;;;;;;;;;;16.80;62.20;;;;;;5072097;28;19921;-67
2023/05/08 03:43:49;;;;;;;;;;;16.80;62.10;;;;;;5074560;28;19924;-68
2023/05/08 03:46:15;;;;;;;;;;;16.80;62.10;;;;;;5073078;28;19947;-67
2023/05/08 03:48:41;;;;;;;;;;;16.80;62.10;;;;;;5105878;28;19932;-68
2023/05/08 03:51:06;;;;;;;;;;;16.80;62.10;;;;;;5073610;28;20024;-68
2023/05/08 03:53:32;;;;;;;;;;;16.80;62.10;;;;;;5108912;28;19930;-67
2023/05/08 03:55:58;;;;;;;;;;;16.70;62.00;;;;;;5090359;28;19920;-67
2023/05/08 03:58:27;;;;;;;;;;;16.70;62.00;;;;;;5073714;28;19929;-68
2023/05/08 04:00:59;;;;;;;;;;;16.80;62.00;;;;;;5092520;28;20023;-67
2023/05/08 04:03:31;;;;;;;;;;;16.70;61.90;;;;;;5061622;28;19931;-68
2023/05/08 04:06:01;;;;;;;;;;;16.70;62.00;;;;;;5060263;28;19921;-68
2023/05/08 04:08:29;;;;;;;;;;;16.70;61.90;;;;;;5094295;28;19924;-68
2023/05/08 04:11:05;;;;;;;;;;;16.70;61.90;;;;;;5094290;28;19974;-68
2023/05/08 04:13:33;;;;;;;;;;;16.70;61.90;;;;;;5059815;28;19924;-68
2023/05/08 04:18:42;;;;;;;;;;;16.70;61.90;;;;;;5074877;28;19923;-68
2023/05/08 04:21:09;;;;;;;;;;;16.70;61.80;;;;;;5069712;28;19970;-68
2023/05/08 04:23:35;;;;;;;;;;;16.70;61.80;;;;;;5062566;28;20292;-68
2023/05/08 04:26:01;;;;;;;;;;;16.70;61.80;;;;;;5061079;28;19932;-68
2023/05/08 04:28:27;;;;;;;;;;;16.70;61.80;;;;;;5076653;28;19925;-68
2023/05/08 04:30:54;;;;;;;;;;;16.70;61.80;;;;;;5057263;28;20016;-68
2023/05/08 04:33:19;;;;;;;;;;;16.70;61.80;;;;;;5060747;28;20055;-68
2023/05/08 04:35:45;;;;;;;;;;;16.70;61.70;;;;;;5060850;28;19939;-68
2023/05/08 04:38:11;;;;;;;;;;;16.70;61.70;;;;;;5061651;28;19925;-68
2023/05/08 04:40:36;;;;;;;;;;;16.70;61.70;;;;;;5076791;28;19971;-68
2023/05/08 04:43:02;;;;;;;;;;;16.70;61.70;;;;;;5060458;28;19925;-68
2023/05/08 04:45:27;;;;;;;;;;;16.70;61.70;;;;;;5059623;28;19925;-68
2023/05/08 04:47:53;;;;;;;;;;;16.60;61.70;;;;;;5060509;28;19920;-68
2023/05/08 04:50:19;;;;;;;;;;;16.70;61.70;;;;;;5060029;28;19966;-68
2023/05/08 04:52:44;;;;;;;;;;;16.60;61.60;;;;;;5058054;28;19943;-68
2023/05/08 04:55:10;;;;;;;;;;;16.70;61.60;;;;;;5060174;28;19925;-68
2023/05/08 04:57:35;;;;;;;;;;;16.60;61.60;;;;;;5061828;28;19925;-68
2023/05/08 05:00:01;;;;;;;;;;;16.60;61.50;;;;;;5059103;28;19920;-68
2023/05/08 05:02:26;;;;;;;;;;;16.60;61.60;;;;;;5062124;28;20353;-68
2023/05/08 05:04:52;;;;;;;;;;;16.60;61.50;;;;;;5058753;28;19970;-68
2023/05/08 05:07:17;;;;;;;;;;;16.60;61.50;;;;;;5061910;28;19975;-68
2023/05/08 05:09:43;;;;;;;;;;;16.60;61.50;;;;;;5059695;28;19925;-67
2023/05/08 05:12:08;;;;;;;;;;;16.60;61.50;;;;;;5061658;28;19982;-68
2023/05/08 05:14:34;;;;;;;;;;;16.60;61.50;;;;;;5059724;28;19966;-68
2023/05/08 05:16:59;;;;;;;;;;;16.60;61.50;;;;;;5066224;28;19950;-68
2023/05/08 05:19:25;;;;;;;;;;;16.60;61.50;;;;;;5078386;28;19921;-67
2023/05/08 05:21:51;;;;;;;;;;;16.60;61.50;;;;;;5074104;28;19928;-67
2023/05/08 05:24:16;;;;;;;;;;;16.60;61.60;;;;;;5078381;28;19924;-67
2023/05/08 05:26:42;;;;;;;;;;;16.70;61.90;;;;;;5060341;28;20276;-67
2023/05/08 05:29:08;;;;;;;;;;;16.70;62.00;;;;;;5050822;28;19952;-66
2023/05/08 05:31:33;;;;;;;;;;;16.70;62.00;;;;;;5045931;28;19964;-66
2023/05/08 05:33:59;;;;;;;;;;;16.70;62.10;;;;;;5048035;28;19924;-66
2023/05/08 05:36:24;;;;;;;;;;;16.70;62.20;;;;;;5062332;28;19921;-65
2023/05/08 05:38:50;;;;;;;;;;;16.70;62.30;;;;;;5044581;28;20380;-65
2023/05/08 05:41:15;;;;;;;;;;;16.80;62.40;;;;;;5066467;28;19932;-65
2023/05/08 05:43:41;;;;;;;;;;;16.70;62.50;;;;;;5065219;28;19974;-65
2023/05/08 05:46:07;;;;;;;;;;;16.80;62.50;;;;;;5067235;28;20453;-65
2023/05/08 05:48:32;;;;;;;;;;;16.70;62.50;;;;;;5063986;28;19927;-65
2023/05/08 05:50:58;;;;;;;;;;;16.80;62.50;;;;;;5047843;28;19924;-65
2023/05/08 05:53:23;;;;;;;;;;;16.80;62.50;;;;;;5067810;28;19924;-66
2023/05/08 05:55:49;;;;;;;;;;;16.80;62.60;;;;;;5047174;28;20140;-64
2023/05/08 05:58:15;;;;;;;;;;;16.90;62.60;;;;;;5052797;28;19924;-64
2023/05/08 06:00:41;;;;;;;;;;;16.80;62.50;;;;;;5047359;28;19928;-65
2023/05/08 06:03:06;;;;;;;;;;;16.90;62.50;;;;;;5011468;28;20237;-65
2023/05/08 06:05:32;;;;;;;;;;;16.90;62.40;;;;;;5031446;28;19920;-69
2023/05/08 06:07:58;;;;;;;;;;;16.90;62.40;;;;;;5033808;28;19928;-69
2023/05/08 06:10:23;;;;;;;;;;;16.80;62.50;;;;;;5042213;28;19925;-69
2023/05/08 06:12:49;;;;;;;;;;;16.80;62.40;;;;;;5041641;28;19925;-69
2023/05/08 06:15:14;;;;;;;;;;;16.80;62.40;;;;;;5039401;28;20327;-69
2023/05/08 06:17:40;;;;;;;;;;;16.80;62.50;;;;;;5049099;28;20323;-69
2023/05/08 06:20:06;;;;;;;;;;;16.80;62.50;;;;;;5035764;28;20007;-69
2023/05/08 06:22:31;;;;;;;;;;;16.80;62.40;;;;;;5032903;28;19971;-67
2023/05/08 06:24:57;;;;;;;;;;;16.80;62.50;;;;;;5048320;28;19932;-68
2023/05/08 06:27:23;;;;;;;;;;;16.80;62.50;;;;;;5037863;28;19925;-72
2023/05/08 06:29:50;;;;;;;;;;;16.80;62.50;;;;;;5027027;28;20426;-71
2023/05/08 06:32:16;;;;;;;;;;;16.80;62.50;;;;;;5028621;28;19931;-72
2023/05/08 06:34:41;;;;;;;;;;;16.90;62.50;;;;;;5010739;28;19929;-72
2023/05/08 06:37:07;;;;;;;;;;;16.90;62.50;;;;;;5039905;28;20650;-72
2023/05/08 06:39:32;;;;;;;;;;;16.90;62.50;;;;;;5025056;28;19948;-70
2023/05/08 06:41:58;;;;;;;;;;;16.80;62.50;;;;;;5038249;28;20007;-70
2023/05/08 06:44:23;;;;;;;;;;;16.90;62.60;;;;;;5026728;28;19929;-72
2023/05/08 06:46:49;;;;;;;;;;;16.90;62.80;;;;;;5037023;28;20023;-71
2023/05/08 06:49:14;;;;;;;;;;;16.90;62.90;;;;;;5026217;28;19928;-71
2023/05/08 06:51:40;;;;;;;;;;;16.90;63.10;;;;;;5023091;28;20316;-69
2023/05/08 06:54:06;;;;;;;;;;;17.00;63.20;;;;;;5042636;28;20343;-67
2023/05/08 06:56:32;;;;;;;;;;;17.00;63.30;;;;;;5018723;28;20492;-66
2023/05/08 06:58:57;;;;;;;;;;;17.00;63.40;;;;;;5037489;28;20301;-66
2023/05/08 07:01:23;;;;;;;;;;;17.00;63.20;;;;;;5023747;28;19928;-69
2023/05/08 07:03:48;;;;;;;;;;;17.10;63.20;;;;;;5033425;28;19979;-70
2023/05/08 07:06:14;;;;;;;;;;;17.10;63.30;;;;;;5018930;28;20362;-69
2023/05/08 07:08:39;;;;;;;;;;;17.10;63.40;;;;;;5021585;28;19965;-69
2023/05/08 07:11:05;;;;;;;;;;;17.10;63.50;;;;;;5020949;28;19925;-66
2023/05/08 07:13:30;;;;;;;;;;;17.10;63.50;;;;;;5020631;28;19925;-66
2023/05/08 07:15:56;;;;;;;;;;;17.20;63.60;;;;;;5027229;28;19978;-70
2023/05/08 07:18:21;;;;;;;;;;;17.20;63.70;;;;;;5028967;28;19951;-67
2023/05/08 07:20:47;;;;;;;;;;;17.20;63.70;;;;;;5040204;28;20003;-72
2023/05/08 07:23:12;;;;;;;;;;;17.20;63.80;;;;;;5016377;28;20211;-70
2023/05/08 07:25:38;;;;;;;;;;;17.20;63.80;;;;;;5017600;28;19929;-69
2023/05/08 07:28:03;;;;;;;;;;;17.30;63.90;;;;;;5037875;28;19925;-69
2023/05/08 07:30:29;;;;;;;;;;;17.30;64.00;;;;;;5021634;28;19935;-68
2023/05/08 07:32:55;;;;;;;;;;;17.30;63.90;;;;;;5038351;28;20088;-65
2023/05/08 07:35:20;;;;;;;;;;;17.30;64.00;;;;;;5039870;28;19925;-68
2023/05/08 07:37:46;;;;;;;;;;;17.30;64.00;;;;;;5021110;28;20402;-65
2023/05/08 07:40:11;;;;;;;;;;;17.40;64.00;;;;;;5015894;28;19925;-69
2023/05/08 07:42:38;;;;;;;;;;;17.40;64.10;;;;;;5023374;28;20338;-70
2023/05/08 07:45:04;;;;;;;;;;;17.40;64.00;;;;;;5022891;28;19944;-68
2023/05/08 07:47:29;;;;;;;;;;;17.40;64.00;;;;;;5035878;28;19928;-68
2023/05/08 07:49:54;;;;;;;;;;;17.40;64.00;;;;;;5034145;28;20408;-67
2023/05/08 07:52:20;;;;;;;;;;;17.40;64.10;;;;;;5034998;28;20043;-66
2023/05/08 07:54:46;;;;;;;;;;;17.50;64.10;;;;;;5021472;28;19925;-67
2023/05/08 07:57:11;;;;;;;;;;;17.50;64.10;;;;;;5018331;28;19925;-67
2023/05/08 07:59:37;;;;;;;;;;;17.50;64.10;;;;;;5032101;28;19921;-67
2023/05/08 08:02:02;;;;;;;;;;;17.50;64.10;;;;;;5020326;28;20398;-69
2023/05/08 08:04:28;;;;;;;;;;;17.60;64.10;;;;;;5017211;28;20406;-68
2023/05/08 08:06:54;;;;;;;;;;;17.60;64.10;;;;;;5031523;28;19924;-69
2023/05/08 08:09:19;;;;;;;;;;;17.60;64.00;;;;;;5037509;28;19936;-67
2023/05/08 08:11:45;;;;;;;;;;;17.70;64.20;;;;;;5016188;28;20717;-65
2023/05/08 08:14:10;;;;;;;;;;;17.70;64.20;;;;;;5031722;28;19924;-66
2023/05/08 08:16:36;;;;;;;;;;;17.70;64.30;;;;;;5012633;28;19929;-66
2023/05/08 08:19:01;;;;;;;;;;;17.70;64.20;;;;;;5013793;28;20590;-67
2023/05/08 08:21:27;;;;;;;;;;;17.80;64.20;;;;;;5017013;28;19940;-65
2023/05/08 08:23:52;;;;;;;;;;;17.80;64.10;;;;;;5016379;28;19921;-67
2023/05/08 08:26:18;;;;;;;;;;;17.80;63.90;;;;;;5036637;28;19928;-67
2023/05/08 08:28:43;;;;;;;;;;;17.80;63.70;;;;;;5034875;28;20014;-66
2023/05/08 08:31:09;;;;;;;;;;;17.80;63.70;;;;;;5016646;28;21003;-67
2023/05/08 08:33:34;;;;;;;;;;;17.90;63.60;;;;;;5010058;28;20297;-68
2023/05/08 08:36:00;;;;;;;;;;;17.90;63.50;;;;;;5016688;28;19932;-67
2023/05/08 08:38:26;;;;;;;;;;;17.90;63.60;;;;;;5018085;28;20342;-67
2023/05/08 08:40:52;;;;;;;;;;;17.90;63.70;;;;;;5036027;28;19947;-67
2023/05/08 08:43:17;;;;;;;;;;;18.00;63.80;;;;;;5035010;28;19920;-68
2023/05/08 08:45:43;;;;;;;;;;;18.00;63.80;;;;;;5022041;28;19921;-68
2023/05/08 08:48:10;;;;;;;;;;;18.00;63.80;;;;;;5033379;28;20193;-67
2023/05/08 08:50:39;;;;;;;;;;;18.00;63.90;;;;;;5026134;28;19991;-67
2023/05/08 08:53:07;;;;;;;;;;;18.00;64.00;;;;;;5033791;28;19925;-68
2023/05/08 08:55:34;;;;;;;;;;;18.10;64.10;;;;;;5029389;28;19971;-66
2023/05/08 09:00:40;;;;;;;;;;;18.10;65.10;;;;;;5061655;28;19927;-69
2023/05/08 09:03:07;;;;;;;;;;;18.10;64.20;;;;;;5047586;28;19924;-68
2023/05/08 09:05:33;;;;;;;;;;;18.20;64.40;;;;;;5048782;28;19930;-68
2023/05/08 09:07:59;;;;;;;;;;;18.20;64.40;;;;;;5045875;28;19933;-68
2023/05/08 09:10:25;;;;;;;;;;;18.20;64.50;;;;;;5050071;28;20277;-67
2023/05/08 09:12:50;;;;;;;;;;;18.20;64.50;;;;;;5045801;28;20594;-69
2023/05/08 09:15:16;;;;;;;;;;;18.20;64.50;;;;;;5064501;28;20267;-66
2023/05/08 09:17:41;;;;;;;;;;;18.30;64.70;;;;;;5059055;28;20400;-67
2023/05/08 09:20:07;;;;;;;;;;;18.40;64.90;;;;;;5051991;28;20391;-67
2023/05/08 09:22:35;;;;;;;;;;;18.40;64.90;;;;;;5050887;28;20360;-69
2023/05/08 09:25:02;;;;;;;;;;;18.40;65.00;;;;;;5051389;28;19921;-67
2023/05/08 09:27:28;;;;;;;;;;;18.40;65.00;;;;;;5065883;28;19921;-67
2023/05/08 09:30:10;;;;;;;;;;;18.50;65.10;;;;;;5048101;28;20376;-67
2023/05/08 09:32:38;;;;;;;;;;;18.50;65.00;;;;;;5048451;28;20341;-64
2023/05/08 09:35:04;;;;;;;;;;;18.50;65.00;;;;;;5045084;28;19931;-64
2023/05/08 09:37:30;;;;;;;;;;;18.60;65.10;;;;;;5062676;28;19925;-61
2023/05/08 09:40:15;;;;;;;;;;;18.60;65.00;;;;;;5046626;28;19925;-66
2023/05/08 09:42:41;;;;;;;;;;;18.70;65.10;;;;;;5052138;28;20309;-67
2023/05/08 09:45:06;;;;;;;;;;;18.70;64.90;;;;;;5062092;28;19920;-67
2023/05/08 09:47:33;;;;;;;;;;;18.70;65.10;;;;;;5049877;28;20475;-66
2023/05/08 09:50:03;;;;;;;;;;;18.70;64.70;;;;;;5047361;28;19920;-68
2023/05/08 09:52:29;;;;;;;;;;;18.70;64.70;;;;;;5046541;28;20244;-67
2023/05/08 09:54:57;;;;;;;;;;;18.70;64.60;;;;;;5042344;28;19964;-66
2023/05/08 09:57:23;;;;;;;;;;;18.70;64.60;;;;;;5059435;28;20007;-67
2023/05/08 09:59:48;;;;;;;;;;;18.70;64.50;;;;;;5045617;28;19982;-66
2023/05/08 10:02:15;;;;;;;;;;;18.70;64.40;;;;;;5042694;28;20038;-67
2023/05/08 10:04:41;;;;;;;;;;;18.80;64.70;;;;;;5053283;28;20297;-68
2023/05/08 10:07:07;;;;;;;;;;;18.70;64.60;;;;;;5049416;28;19924;-67
2023/05/08 10:09:32;;;;;;;;;;;18.70;64.80;;;;;;5048094;28;19925;-68
2023/05/08 10:11:58;;;;;;;;;;;18.70;64.80;;;;;;5049249;28;20399;-67
2023/05/08 10:14:23;;;;;;;;;;;18.70;65.00;;;;;;5037319;28;20145;-67
2023/05/08 10:16:51;;;;;;;;;;;18.70;65.00;;;;;;5031357;28;19925;-68
2023/05/08 10:19:19;;;;;;;;;;;18.70;64.80;;;;;;5029493;28;19936;-68
2023/05/08 10:21:46;;;;;;;;;;;18.70;64.80;;;;;;5027175;28;19925;-69
2023/05/08 10:24:13;;;;;;;;;;;18.70;64.80;;;;;;5033910;28;19929;-69
2023/05/08 10:26:41;;;;;;;;;;;18.70;64.80;;;;;;5032743;28;19924;-67
2023/05/08 10:29:07;;;;;;;;;;;18.70;65.20;;;;;;5032163;28;20008;-71
2023/05/08 10:31:34;;;;;;;;;;;18.70;65.40;;;;;;5033600;28;19925;-69
2023/05/08 10:34:01;;;;;;;;;;;18.70;65.30;;;;;;5038540;28;20523;-69
2023/05/08 10:36:27;;;;;;;;;;;18.70;65.40;;;;;;5033950;28;19936;-70
2023/05/08 10:38:53;;;;;;;;;;;18.70;65.60;;;;;;5032994;28;19933;-71
2023/05/08 10:41:19;;;;;;;;;;;18.70;65.40;;;;;;5030589;28;19924;-68
2023/05/08 10:43:45;;;;;;;;;;;18.80;65.50;;;;;;5033785;28;19925;-68
2023/05/08 10:46:21;;;;;;;;;;;18.80;65.40;;;;;;5031510;28;20110;-70
2023/05/08 10:48:53;;;;;;;;;;;18.80;66.40;;;;;;5036925;28;19925;-67
2023/05/08 10:51:24;;;;;;;;;;;18.80;65.80;;;;;;5035824;28;20444;-67
2023/05/08 10:54:00;;;;;;;;;;;18.80;65.80;;;;;;5039015;28;19935;-67
2023/05/08 10:56:27;;;;;;;;;;;18.80;65.90;;;;;;5034465;28;19956;-66
2023/05/08 10:58:56;;;;;;;;;;;18.90;66.10;;;;;;5033522;28;19936;-64
2023/05/08 11:01:22;;;;;;;;;;;18.90;66.00;;;;;;5048435;28;19929;-65
2023/05/08 11:03:49;;;;;;;;;;;19.00;66.00;;;;;;5035845;28;20349;-66
2023/05/08 11:06:15;;;;;;;;;;;19.00;65.80;;;;;;5035959;28;19974;-65
2023/05/08 11:08:43;;;;;;;;;;;19.00;65.90;;;;;;5028355;28;19929;-65
2023/05/08 11:11:12;;;;;;;;;;;18.90;65.90;;;;;;5033595;28;20400;-69
2023/05/08 11:13:46;;;;;;;;;;;19.00;66.20;;;;;;5029690;28;20250;-68
2023/05/08 11:16:11;;;;;;;;;;;19.00;66.20;;;;;;5031862;28;19928;-67
2023/05/08 11:18:37;;;;;;;;;;;19.10;66.40;;;;;;5025496;28;20427;-68
2023/05/08 11:21:05;;;;;;;;;;;19.10;66.30;;;;;;5031022;28;20344;-67
2023/05/08 11:23:31;;;;;;;;;;;19.10;66.30;;;;;;5037469;28;20249;-68
2023/05/08 11:26:01;;;;;;;;;;;19.00;66.20;;;;;;5031809;28;19947;-69
2023/05/08 11:28:29;;;;;;;;;;;19.00;66.20;;;;;;5032313;28;19925;-68
2023/05/08 11:30:55;;;;;;;;;;;19.00;66.20;;;;;;5032684;28;20323;-69
2023/05/08 11:33:21;;;;;;;;;;;18.90;66.30;;;;;;5036051;28;19951;-70
2023/05/08 11:35:49;;;;;;;;;;;18.90;66.30;;;;;;5035164;28;19925;-68
2023/05/08 11:38:17;;;;;;;;;;;18.90;66.40;;;;;;5035409;28;19929;-66
2023/05/08 11:40:45;;;;;;;;;;;18.90;66.40;;;;;;5029787;28;19925;-71
2023/05/08 11:43:19;;;;;;;;;;;18.90;66.30;;;;;;5033820;28;20335;-66
2023/05/08 11:45:45;;;;;;;;;;;18.80;66.20;;;;;;5049667;28;19936;-66
2023/05/08 11:48:13;;;;;;;;;;;18.80;67.10;;;;;;5035431;28;19931;-68
2023/05/08 11:50:38;;;;;;;;;;;18.90;67.00;;;;;;5033487;28;19925;-66
2023/05/08 11:53:04;;;;;;;;;;;18.90;67.10;;;;;;5032969;28;19932;-67
2023/05/08 11:55:30;;;;;;;;;;;18.90;67.10;;;;;;5034814;28;19936;-66
2023/05/08 11:57:55;;;;;;;;;;;18.90;67.20;;;;;;5033430;28;19972;-65
2023/05/08 12:00:20;;;;;;;;;;;18.90;67.80;;;;;;5033799;28;20383;-66
2023/05/08 12:02:46;;;;;;;;;;;19.00;68.20;;;;;;5049453;28;19963;-65
2023/05/08 12:05:11;;;;;;;;;;;19.00;68.10;;;;;;5035069;28;19929;-68
2023/05/08 12:07:45;;;;;;;;;;;19.00;67.90;;;;;;5029616;28;20296;-68
2023/05/08 12:10:11;;;;;;;;;;;19.10;68.00;;;;;;5031827;28;20295;-68
2023/05/08 12:12:38;;;;;;;;;;;19.00;68.10;;;;;;5034435;28;20037;-66
2023/05/08 12:15:05;;;;;;;;;;;19.00;67.90;;;;;;5042163;28;20645;-68
2023/05/08 12:17:30;;;;;;;;;;;19.00;68.10;;;;;;5027801;28;20381;-68
2023/05/08 12:20:02;;;;;;;;;;;19.10;68.40;;;;;;5029779;28;19939;-65
2023/05/08 12:22:28;;;;;;;;;;;19.10;68.40;;;;;;5027779;28;19925;-66
2023/05/08 12:24:53;;;;;;;;;;;19.10;68.30;;;;;;5027784;28;19925;-68
2023/05/08 12:27:19;;;;;;;;;;;19.20;68.60;;;;;;5029404;28;19925;-67
2023/05/08 12:29:45;;;;;;;;;;;19.20;68.60;;;;;;5030229;28;20015;-66
2023/05/08 12:32:10;;;;;;;;;;;19.20;68.70;;;;;;5031087;28;20408;-67
2023/05/08 12:34:36;;;;;;;;;;;19.20;69.50;;;;;;5027444;28;19925;-67
2023/05/08 12:37:03;;;;;;;;;;;19.20;68.60;;;;;;5029086;28;19925;-68
2023/05/08 12:39:33;;;;;;;;;;;19.20;68.80;;;;;;5035300;28;19936;-71
2023/05/08 12:41:58;;;;;;;;;;;19.20;69.40;;;;;;5031077;28;20295;-67
2023/05/08 12:44:24;;;;;;;;;;;19.20;69.40;;;;;;5029971;28;19932;-67
2023/05/08 12:46:52;;;;;;;;;;;19.30;69.70;;;;;;5034692;28;20380;-66
2023/05/08 12:49:25;;;;;;;;;;;19.30;69.60;;;;;;5030175;28;19979;-68
2023/05/08 12:51:51;;;;;;;;;;;19.30;69.50;;;;;;5028652;28;19924;-68
2023/05/08 12:54:17;;;;;;;;;;;19.30;69.40;;;;;;5027906;28;19932;-68
2023/05/08 12:56:43;;;;;;;;;;;19.30;69.80;;;;;;5031118;28;19929;-66
2023/05/08 12:59:09;;;;;;;;;;;19.30;69.50;;;;;;5033266;28;20029;-68
2023/05/08 13:01:34;;;;;;;;;;;19.40;69.60;;;;;;5030809;28;20415;-71
2023/05/08 13:04:01;;;;;;;;;;;19.40;69.70;;;;;;5035007;28;19924;-68
2023/05/08 13:06:26;;;;;;;;;;;19.50;69.90;;;;;;5025879;28;20012;-68
2023/05/08 13:08:54;;;;;;;;;;;19.50;70.10;;;;;;5031698;28;20079;-66
2023/05/08 13:11:27;;;;;;;;;;;19.60;70.00;;;;;;5026684;28;20301;-68
2023/05/08 13:13:53;;;;;;;;;;;19.70;70.00;;;;;;5032284;28;19968;-67
2023/05/08 13:16:18;;;;;;;;;;;19.70;69.90;;;;;;5036765;28;19975;-67
2023/05/08 13:18:44;;;;;;;;;;;19.70;70.10;;;;;;5036547;28;20697;-67
2023/05/08 13:21:09;;;;;;;;;;;19.70;70.20;;;;;;5042731;28;19960;-66
2023/05/08 13:23:35;;;;;;;;;;;19.70;70.40;;;;;;5037904;28;19920;-68
2023/05/08 13:26:00;;;;;;;;;;;19.70;70.40;;;;;;5038500;28;19943;-69
2023/05/08 13:28:26;;;;;;;;;;;19.70;70.10;;;;;;5038573;28;21379;-67
2023/05/08 13:30:51;;;;;;;;;;;19.70;69.90;;;;;;5037952;28;19925;-67
2023/05/08 13:33:17;;;;;;;;;;;19.70;69.90;;;;;;5038628;28;20332;-65
2023/05/08 13:35:42;;;;;;;;;;;19.70;69.60;;;;;;5039129;28;19925;-65
2023/05/08 13:38:08;;;;;;;;;;;19.80;69.60;;;;;;5039225;28;20016;-66
2023/05/08 13:40:33;;;;;;;;;;;19.80;69.30;;;;;;5040280;28;20035;-68
2023/05/08 13:42:59;;;;;;;;;;;19.80;69.30;;;;;;5039905;28;19947;-68
2023/05/08 13:45:24;;;;;;;;;;;19.80;69.30;;;;;;5037688;28;20392;-68
2023/05/08 13:47:50;;;;;;;;;;;19.80;69.10;;;;;;5043478;28;19924;-67
2023/05/08 13:50:17;;;;;;;;;;;19.80;68.70;;;;;;5042165;28;19947;-69
2023/05/08 13:52:42;;;;;;;;;;;19.90;68.80;;;;;;5046001;28;20012;-67
2023/05/08 13:55:10;;;;;;;;;;;19.90;68.70;;;;;;5042596;28;20425;-68
2023/05/08 13:57:36;;;;;;;;;;;19.90;68.50;;;;;;5052607;28;19921;-68
2023/05/08 14:00:02;;;;;;;;;;;19.90;68.50;;;;;;5042364;28;19990;-68
2023/05/08 14:02:28;;;;;;;;;;;20.00;68.70;;;;;;5043499;28;19921;-67
2023/05/08 14:04:53;;;;;;;;;;;20.00;68.70;;;;;;5044988;28;19974;-68
2023/05/08 14:07:19;;;;;;;;;;;20.00;68.70;;;;;;5049491;28;19979;-66
2023/05/08 14:09:45;;;;;;;;;;;20.00;68.50;;;;;;5044616;28;20550;-66
2023/05/08 14:12:11;;;;;;;;;;;20.00;68.60;;;;;;5045025;28;20218;-67
2023/05/08 14:14:37;;;;;;;;;;;19.90;68.50;;;;;;5044289;28;20517;-68
2023/05/08 14:17:03;;;;;;;;;;;19.80;68.50;;;;;;5040716;28;20161;-68
2023/05/08 14:19:28;;;;;;;;;;;19.80;68.60;;;;;;5045348;28;19931;-68
2023/05/08 14:21:54;;;;;;;;;;;19.70;68.80;;;;;;5044853;28;19946;-69
2023/05/08 14:24:19;;;;;;;;;;;19.60;68.80;;;;;;5047063;28;19928;-70
2023/05/08 14:26:45;;;;;;;;;;;19.60;69.10;;;;;;5044780;28;19928;-68